createdAt,value
2018-03-26T00:02:21.727Z,95.70
2018-03-26T00:04:49.180Z,95.80
2018-03-26T00:07:16.639Z,96.10
2018-03-26T00:09:44.096Z,96.10
2018-03-26T00:12:11.558Z,93.40
2018-03-26T00:14:39.013Z,91.00
2018-03-26T00:17:06.472Z,88.40
2018-03-26T00:19:33.927Z,88.70
2018-03-26T00:22:01.404Z,87.10
2018-03-26T00:24:28.844Z,89.20
2018-03-26T00:26:56.303Z,90.90
2018-03-26T00:29:23.756Z,92.20
2018-03-26T00:31:51.216Z,92.10
2018-03-26T00:34:18.696Z,92.50
2018-03-26T00:36:46.960Z,93.50
2018-03-26T00:39:14.387Z,93.50
2018-03-26T00:41:41.844Z,92.90
2018-03-26T00:44:09.301Z,92.10
2018-03-26T00:46:37.520Z,89.70
2018-03-26T00:49:04.952Z,89.70
2018-03-26T00:51:32.445Z,87.00
2018-03-26T00:53:59.884Z,87.00
2018-03-26T00:56:27.343Z,87.30
2018-03-26T00:58:54.796Z,90.60
2018-03-26T01:01:22.252Z,91.10
2018-03-26T01:03:49.699Z,89.50
2018-03-26T01:06:17.169Z,90.50
2018-03-26T01:08:44.608Z,91.10
2018-03-26T01:11:12.069Z,90.90
2018-03-26T01:13:39.556Z,89.30
2018-03-26T01:16:06.996Z,88.90
2018-03-26T01:18:34.470Z,91.10
2018-03-26T01:21:01.925Z,92.00
2018-03-26T01:23:29.364Z,92.10
2018-03-26T01:25:56.812Z,90.60
2018-03-26T01:28:24.283Z,88.60
2018-03-26T01:30:51.731Z,88.10
2018-03-26T01:33:19.195Z,88.60
2018-03-26T01:35:46.640Z,87.80
2018-03-26T01:38:14.091Z,88.20
2018-03-26T01:40:41.544Z,91.10
2018-03-26T01:43:08.995Z,91.10
2018-03-26T01:45:36.490Z,90.40
2018-03-26T01:48:03.928Z,90.30
2018-03-26T01:50:31.397Z,91.90
2018-03-26T01:52:58.855Z,92.80
2018-03-26T01:55:26.314Z,91.70
2018-03-26T01:57:54.599Z,88.90
2018-03-26T02:00:22.045Z,88.70
2018-03-26T02:02:49.500Z,89.10
2018-03-26T02:05:16.948Z,91.40
2018-03-26T02:07:44.428Z,92.70
2018-03-26T02:10:11.872Z,93.00
2018-03-26T02:12:39.355Z,93.20
2018-03-26T02:15:07.580Z,89.00
2018-03-26T02:17:35.052Z,89.00
2018-03-26T02:20:02.494Z,90.50
2018-03-26T02:22:29.990Z,91.20
2018-03-26T02:24:57.419Z,90.70
2018-03-26T02:27:24.884Z,91.30
2018-03-26T02:29:52.328Z,90.90
2018-03-26T02:32:19.800Z,90.50
2018-03-26T02:34:47.244Z,91.30
2018-03-26T02:37:14.715Z,90.00
2018-03-26T02:39:42.148Z,91.50
2018-03-26T02:42:09.632Z,90.00
2018-03-26T02:44:37.102Z,87.80
2018-03-26T02:47:04.561Z,87.10
2018-03-26T02:49:32.004Z,87.80
2018-03-26T02:51:59.475Z,89.50
2018-03-26T02:54:26.920Z,88.40
2018-03-26T02:56:54.372Z,86.40
2018-03-26T02:59:21.832Z,87.10
2018-03-26T03:01:49.300Z,86.50
2018-03-26T03:04:16.742Z,89.30
2018-03-26T03:06:44.275Z,91.40
2018-03-26T03:09:11.752Z,91.50
2018-03-26T03:11:39.214Z,90.80
2018-03-26T03:14:06.700Z,90.60
2018-03-26T03:16:34.149Z,91.70
2018-03-26T03:19:01.604Z,91.30
2018-03-26T03:21:29.060Z,90.70
2018-03-26T03:23:56.499Z,90.00
2018-03-26T03:26:23.957Z,88.10
2018-03-26T03:28:51.416Z,86.30
2018-03-26T03:31:18.857Z,87.50
2018-03-26T03:33:46.315Z,91.30
2018-03-26T03:36:13.759Z,87.80
2018-03-26T03:38:41.220Z,87.20
2018-03-26T03:41:08.672Z,88.30
2018-03-26T03:43:36.131Z,90.00
2018-03-26T03:46:03.595Z,90.30
2018-03-26T03:48:31.048Z,89.60
2018-03-26T03:50:58.518Z,85.70
2018-03-26T03:53:25.948Z,85.50
2018-03-26T03:55:53.404Z,89.80
2018-03-26T03:58:20.865Z,91.30
2018-03-26T04:00:48.320Z,92.80
2018-03-26T04:03:15.795Z,93.40
2018-03-26T04:05:43.235Z,93.70
2018-03-26T04:08:10.694Z,94.30
2018-03-26T04:10:38.152Z,94.20
2018-03-26T04:13:05.643Z,94.20
2018-03-26T04:15:33.086Z,94.00
2018-03-26T04:18:00.544Z,94.20
2018-03-26T04:20:28.016Z,94.40
2018-03-26T04:22:55.478Z,94.10
2018-03-26T04:25:22.919Z,93.50
2018-03-26T04:27:50.421Z,93.10
2018-03-26T04:30:17.871Z,93.60
2018-03-26T04:32:45.325Z,94.20
2018-03-26T04:35:12.771Z,94.70
2018-03-26T04:37:40.215Z,93.10
2018-03-26T04:40:07.664Z,92.20
2018-03-26T04:42:35.115Z,92.30
2018-03-26T04:45:02.580Z,93.40
2018-03-26T04:47:30.028Z,92.80
2018-03-26T04:49:57.475Z,91.00
2018-03-26T04:52:24.947Z,90.60
2018-03-26T04:54:52.391Z,90.50
2018-03-26T04:57:20.615Z,88.50
2018-03-26T04:59:48.074Z,88.50
2018-03-26T05:02:15.559Z,92.50
2018-03-26T05:04:42.960Z,94.00
2018-03-26T05:07:10.419Z,92.90
2018-03-26T05:09:37.868Z,92.10
2018-03-26T05:12:05.323Z,91.10
2018-03-26T05:14:32.774Z,91.00
2018-03-26T05:17:00.232Z,91.40
2018-03-26T05:19:27.683Z,90.90
2018-03-26T05:21:55.140Z,91.20
2018-03-26T05:24:22.605Z,91.80
2018-03-26T05:26:50.040Z,92.90
2018-03-26T05:29:17.507Z,91.40
2018-03-26T05:31:45.707Z,90.80
2018-03-26T05:34:13.164Z,90.80
2018-03-26T05:36:40.624Z,89.70
2018-03-26T05:39:08.083Z,90.80
2018-03-26T05:41:35.524Z,90.70
2018-03-26T05:44:02.980Z,90.50
2018-03-26T05:46:30.428Z,90.50
2018-03-26T05:48:57.888Z,88.80
2018-03-26T05:51:26.102Z,87.70
2018-03-26T05:53:53.539Z,87.70
2018-03-26T05:56:21.008Z,85.30
2018-03-26T05:58:48.468Z,86.80
2018-03-26T06:01:15.900Z,87.00
2018-03-26T06:03:43.359Z,87.20
2018-03-26T06:06:10.807Z,86.90
2018-03-26T06:08:38.264Z,86.30
2018-03-26T06:11:05.727Z,90.80
2018-03-26T06:13:33.186Z,91.40
2018-03-26T06:16:00.632Z,90.90
2018-03-26T06:18:28.095Z,90.50
2018-03-26T06:20:55.532Z,90.60
2018-03-26T06:23:22.992Z,90.10
2018-03-26T06:25:50.447Z,90.30
2018-03-26T06:28:17.920Z,90.40
2018-03-26T06:30:45.369Z,90.30
2018-03-26T06:33:12.821Z,90.30
2018-03-26T06:35:40.260Z,87.80
2018-03-26T06:38:10.175Z,86.40
2018-03-26T06:40:37.620Z,85.70
2018-03-26T06:43:05.859Z,86.00
2018-03-26T06:45:33.303Z,85.90
2018-03-26T06:48:00.765Z,87.70
2018-03-26T06:50:28.252Z,89.20
2018-03-26T06:52:55.691Z,88.10
2018-03-26T06:55:23.144Z,89.10
2018-03-26T06:57:50.605Z,91.80
2018-03-26T07:00:18.053Z,92.10
2018-03-26T07:02:45.506Z,92.80
2018-03-26T07:05:12.956Z,93.50
2018-03-26T07:07:40.408Z,93.80
2018-03-26T07:10:07.857Z,93.50
2018-03-26T07:12:35.316Z,92.90
2018-03-26T07:15:02.830Z,92.30
2018-03-26T07:17:30.224Z,91.90
2018-03-26T07:19:57.694Z,91.60
2018-03-26T07:22:25.143Z,92.70
2018-03-26T07:24:52.600Z,93.70
2018-03-26T07:27:20.060Z,94.00
2018-03-26T07:29:47.516Z,93.80
2018-03-26T07:32:14.967Z,94.00
2018-03-26T07:34:42.428Z,94.30
2018-03-26T07:37:09.868Z,94.00
2018-03-26T07:39:37.337Z,93.00
2018-03-26T07:42:04.775Z,92.10
2018-03-26T07:44:33.009Z,92.80
2018-03-26T07:47:00.464Z,92.80
2018-03-26T07:49:27.944Z,92.20
2018-03-26T07:51:55.399Z,91.70
2018-03-26T07:54:22.827Z,92.90
2018-03-26T07:56:50.281Z,91.90
2018-03-26T07:59:17.729Z,90.50
2018-03-26T08:01:45.183Z,90.20
2018-03-26T08:04:12.656Z,89.20
2018-03-26T08:06:40.118Z,88.10
2018-03-26T08:09:07.572Z,87.90
2018-03-26T08:11:35.021Z,87.70
2018-03-26T08:14:02.472Z,87.60
2018-03-26T08:16:29.920Z,87.90
2018-03-26T08:18:57.397Z,89.70
2018-03-26T08:21:24.852Z,90.40
2018-03-26T08:23:52.299Z,89.70
2018-03-26T08:26:19.748Z,88.10
2018-03-26T08:28:47.208Z,87.40
2018-03-26T08:31:15.419Z,85.60
2018-03-26T08:33:42.886Z,85.60
2018-03-26T08:36:10.332Z,84.90
2018-03-26T08:38:37.788Z,85.30
2018-03-26T08:41:05.259Z,85.70
2018-03-26T08:43:32.700Z,87.00
2018-03-26T08:46:00.144Z,87.30
2018-03-26T08:48:27.636Z,86.30
2018-03-26T08:50:55.080Z,87.30
2018-03-26T08:53:23.096Z,87.40
2018-03-26T08:55:49.972Z,87.80
2018-03-26T08:58:17.427Z,86.70
2018-03-26T09:00:44.888Z,85.30
2018-03-26T09:03:12.348Z,85.30
2018-03-26T09:05:39.796Z,86.10
2018-03-26T09:08:07.256Z,85.20
2018-03-26T09:10:34.712Z,84.10
2018-03-26T09:13:02.196Z,82.90
2018-03-26T09:15:29.652Z,84.00
2018-03-26T09:17:57.137Z,83.50
2018-03-26T09:20:25.380Z,81.40
2018-03-26T09:22:52.837Z,81.30
2018-03-26T09:25:20.300Z,80.90
2018-03-26T09:27:47.751Z,81.20
2018-03-26T09:30:15.213Z,80.90
2018-03-26T09:32:42.668Z,79.40
2018-03-26T09:35:10.128Z,78.80
2018-03-26T09:37:37.564Z,77.70
2018-03-26T09:40:05.040Z,76.00
2018-03-26T09:42:32.500Z,73.80
2018-03-26T09:44:59.956Z,72.20
2018-03-26T09:47:27.431Z,70.90
2018-03-26T09:49:54.896Z,72.60
2018-03-26T09:52:23.128Z,74.70
2018-03-26T09:54:50.615Z,74.60
2018-03-26T09:57:18.076Z,73.10
2018-03-26T09:59:45.532Z,66.60
2018-03-26T10:02:12.991Z,68.10
2018-03-26T10:04:40.452Z,67.30
2018-03-26T10:07:08.672Z,68.80
2018-03-26T10:09:36.130Z,68.80
2018-03-26T10:12:03.585Z,66.30
2018-03-26T10:14:31.042Z,65.30
2018-03-26T10:16:58.505Z,67.80
2018-03-26T10:19:25.979Z,66.70
2018-03-26T10:21:53.428Z,67.00
2018-03-26T10:24:21.712Z,62.20
2018-03-26T10:26:49.160Z,63.20
2018-03-26T10:29:16.616Z,64.50
2018-03-26T10:31:44.061Z,63.80
2018-03-26T10:34:11.521Z,61.10
2018-03-26T10:36:39.032Z,58.00
2018-03-26T10:39:07.264Z,58.90
2018-03-26T10:41:34.752Z,58.90
2018-03-26T10:44:02.219Z,57.10
2018-03-26T10:46:29.680Z,58.00
2018-03-26T10:48:57.118Z,59.00
2018-03-26T10:51:24.571Z,58.80
2018-03-26T10:53:52.048Z,59.10
2018-03-26T10:56:19.491Z,57.30
2018-03-26T10:58:46.943Z,57.40
2018-03-26T11:01:14.403Z,55.30
2018-03-26T11:03:41.884Z,56.20
2018-03-26T11:06:09.332Z,58.20
2018-03-26T11:08:36.776Z,56.90
2018-03-26T11:11:04.248Z,61.90
2018-03-26T11:13:31.692Z,61.20
2018-03-26T11:15:59.144Z,61.30
2018-03-26T11:18:26.604Z,59.50
2018-03-26T11:20:54.084Z,59.50
2018-03-26T11:23:21.520Z,59.40
2018-03-26T11:25:48.983Z,58.70
2018-03-26T11:28:16.459Z,57.30
2018-03-26T11:30:44.700Z,53.50
2018-03-26T11:33:12.148Z,53.50
2018-03-26T11:35:39.611Z,49.60
2018-03-26T11:38:07.067Z,49.80
2018-03-26T11:40:34.528Z,52.50
2018-03-26T11:43:01.988Z,50.60
2018-03-26T11:45:29.467Z,52.80
2018-03-26T11:47:56.926Z,55.00
2018-03-26T11:50:24.392Z,54.50
2018-03-26T11:52:51.823Z,56.10
2018-03-26T11:55:19.304Z,54.80
2018-03-26T11:57:46.739Z,55.70
2018-03-26T12:00:14.215Z,56.70
2018-03-26T12:02:41.655Z,54.00
2018-03-26T12:05:09.130Z,49.70
2018-03-26T12:07:36.580Z,47.60
2018-03-26T12:10:04.039Z,45.70
2018-03-26T12:12:31.482Z,46.20
2018-03-26T12:14:58.943Z,48.30
2018-03-26T12:17:26.440Z,48.40
2018-03-26T12:20:05.816Z,42.40
2018-03-26T12:22:33.277Z,42.50
2018-03-26T12:25:15.616Z,43.40
2018-03-26T12:27:55.632Z,39.20
2018-03-26T12:30:26.922Z,39.30
2018-03-26T12:32:54.374Z,44.30
2018-03-26T12:35:34.582Z,47.20
2018-03-26T12:38:02.034Z,47.10
2018-03-26T12:40:41.443Z,46.10
2018-03-26T12:43:08.888Z,47.50
2018-03-26T12:45:49.099Z,49.90
2018-03-26T12:48:16.559Z,49.90
2018-03-26T12:50:55.912Z,46.90
2018-03-26T12:53:23.359Z,45.30
2018-03-26T12:55:50.816Z,42.10
2018-03-26T12:58:30.084Z,38.50
2018-03-26T13:01:10.172Z,43.60
2018-03-26T13:03:37.606Z,43.80
2018-03-26T13:06:05.056Z,44.30
2018-03-26T13:08:33.266Z,46.50
2018-03-26T13:11:00.723Z,46.40
2018-03-26T13:13:28.207Z,47.10
2018-03-26T13:15:55.660Z,48.20
2018-03-26T13:18:23.112Z,49.10
2018-03-26T13:20:50.573Z,48.90
2018-03-26T13:23:18.040Z,48.80
2018-03-26T13:25:45.503Z,47.10
2018-03-26T13:28:12.951Z,44.80
2018-03-26T13:30:40.405Z,43.60
2018-03-26T13:33:07.851Z,45.80
2018-03-26T13:35:35.337Z,46.20
2018-03-26T13:38:02.791Z,44.90
2018-03-26T13:40:30.261Z,44.30
2018-03-26T13:42:58.502Z,46.40
2018-03-26T13:45:25.983Z,46.30
2018-03-26T13:47:54.217Z,48.10
2018-03-26T13:50:21.680Z,48.10
2018-03-26T13:52:49.163Z,48.70
2018-03-26T13:55:16.647Z,47.50
2018-03-26T13:57:44.099Z,46.20
2018-03-26T14:00:12.340Z,47.00
2018-03-26T14:02:39.796Z,47.00
2018-03-26T14:05:07.302Z,47.70
2018-03-26T14:07:35.521Z,48.70
2018-03-26T14:10:14.932Z,48.60
2018-03-26T14:12:54.269Z,47.10
2018-03-26T14:15:33.638Z,46.80
2018-03-26T14:18:01.097Z,48.10
2018-03-26T14:20:28.571Z,46.40
2018-03-26T14:22:56.055Z,47.10
2018-03-26T14:25:24.276Z,46.90
2018-03-26T14:27:51.733Z,46.90
2018-03-26T14:30:19.187Z,46.20
2018-03-26T14:32:46.648Z,50.50
2018-03-26T14:38:23.040Z,87.30
2018-03-26T14:40:50.502Z,87.30
2018-03-26T14:43:17.950Z,90.40
2018-03-26T14:45:45.383Z,91.60
2018-03-26T14:48:12.833Z,91.90
2018-03-26T14:50:40.273Z,91.30
2018-03-26T14:53:08.512Z,88.10
2018-03-26T14:55:35.956Z,88.20
2018-03-26T14:58:03.412Z,87.80
2018-03-26T15:00:30.869Z,90.30
2018-03-26T15:02:58.345Z,92.60
2018-03-26T15:05:25.856Z,91.90
2018-03-26T15:07:53.304Z,88.80
2018-03-26T15:10:20.819Z,90.40
2018-03-26T15:12:48.308Z,89.40
2018-03-26T15:15:15.764Z,90.70
2018-03-26T15:17:43.988Z,89.50
2018-03-26T15:20:11.445Z,89.50
2018-03-26T15:22:38.908Z,88.50
2018-03-26T15:25:06.364Z,87.00
2018-03-26T15:27:33.857Z,85.20
2018-03-26T15:30:01.313Z,85.10
2018-03-26T15:32:28.767Z,85.40
2018-03-26T15:34:56.224Z,86.50
2018-03-26T15:37:23.680Z,90.30
2018-03-26T15:39:51.156Z,90.50
2018-03-26T15:42:18.599Z,89.70
2018-03-26T15:44:46.074Z,90.20
2018-03-26T15:47:13.536Z,90.30
2018-03-26T15:49:41.776Z,90.90
2018-03-26T15:52:09.259Z,90.90
2018-03-26T15:54:36.691Z,90.60
2018-03-26T15:57:04.143Z,91.80
2018-03-26T15:59:31.621Z,91.30
2018-03-26T16:01:58.577Z,92.10
2018-03-26T16:04:26.822Z,92.70
2018-03-26T16:06:54.294Z,92.70
2018-03-26T16:09:21.748Z,93.50
2018-03-26T16:11:49.204Z,92.30
2018-03-26T16:14:16.683Z,91.80
2018-03-26T16:16:44.905Z,92.60
2018-03-26T16:19:12.366Z,92.50
2018-03-26T16:21:39.845Z,92.50
2018-03-26T16:24:07.303Z,92.60
2018-03-26T16:26:34.772Z,91.00
2018-03-26T16:29:02.235Z,90.50
2018-03-26T16:31:29.704Z,88.50
2018-03-26T16:33:57.941Z,79.00
2018-03-26T16:36:25.396Z,78.80
2018-03-26T16:38:52.840Z,79.30
2018-03-26T16:41:32.177Z,82.90
2018-03-26T16:43:59.634Z,90.40
2018-03-26T16:46:27.100Z,93.10
2018-03-26T16:48:54.545Z,95.00
2018-03-26T16:51:22.102Z,92.60
2018-03-26T16:53:49.617Z,93.40
2018-03-26T16:56:17.840Z,92.80
2018-03-26T16:58:45.308Z,92.80
2018-03-26T17:01:12.756Z,93.10
2018-03-26T17:03:40.246Z,91.70
2018-03-26T17:06:07.668Z,90.80
2018-03-26T17:08:35.141Z,91.30
2018-03-26T17:11:02.664Z,88.60
2018-03-26T17:13:30.078Z,91.00
2018-03-26T17:15:57.519Z,86.70
2018-03-26T17:18:25.003Z,88.50
2018-03-26T17:20:53.232Z,81.80
2018-03-26T17:23:20.689Z,81.80
2018-03-26T17:25:48.148Z,81.10
2018-03-26T17:28:15.640Z,84.80
2018-03-26T17:30:43.083Z,81.90
2018-03-26T17:33:10.543Z,84.30
2018-03-26T17:35:37.984Z,82.20
2018-03-26T17:38:05.447Z,80.30
2018-03-26T17:40:32.896Z,81.00
2018-03-26T17:43:00.359Z,80.40
2018-03-26T17:45:27.856Z,79.50
2018-03-26T17:47:56.079Z,79.30
2018-03-26T17:50:23.536Z,79.20
2018-03-26T17:52:51.024Z,82.90
2018-03-26T17:55:18.465Z,83.40
2018-03-26T17:57:45.975Z,82.00
2018-03-26T18:00:13.364Z,85.70
2018-03-26T18:02:40.836Z,86.20
2018-03-26T18:05:08.304Z,87.00
2018-03-26T18:07:35.755Z,86.10
2018-03-26T18:10:03.249Z,86.20
2018-03-26T18:12:30.690Z,87.70
2018-03-26T18:14:58.148Z,88.80
2018-03-26T18:17:25.608Z,88.70
2018-03-26T18:19:53.813Z,86.90
2018-03-26T18:22:21.266Z,86.70
2018-03-26T18:24:48.712Z,86.50
2018-03-26T18:27:16.943Z,81.20
2018-03-26T18:29:44.416Z,80.90
2018-03-26T18:32:11.844Z,82.90
2018-03-26T18:34:39.312Z,83.40
2018-03-26T18:37:06.760Z,84.30
2018-03-26T18:39:34.228Z,81.70
2018-03-26T18:42:01.677Z,81.50
2018-03-26T18:44:29.186Z,80.80
2018-03-26T18:46:56.588Z,80.40
2018-03-26T18:49:24.061Z,78.90
2018-03-26T18:51:51.503Z,79.20
2018-03-26T18:54:18.960Z,77.60
2018-03-26T18:56:46.423Z,77.50
2018-03-26T18:59:13.896Z,75.40
2018-03-26T19:01:41.344Z,81.60
2018-03-26T19:04:08.812Z,84.10
2018-03-26T19:06:36.260Z,83.80
2018-03-26T19:09:03.728Z,84.30
2018-03-26T19:11:31.184Z,85.00
2018-03-26T19:13:58.640Z,85.70
2018-03-26T19:16:26.096Z,84.80
2018-03-26T19:18:53.565Z,83.70
2018-03-26T19:21:21.012Z,83.50
2018-03-26T19:23:48.475Z,83.70
2018-03-26T19:26:15.920Z,83.30
2018-03-26T19:28:43.418Z,84.90
2018-03-26T19:31:10.844Z,86.30
2018-03-26T19:33:38.316Z,86.30
2018-03-26T19:36:06.564Z,87.50
2018-03-26T19:38:34.020Z,87.20
2018-03-26T19:41:01.471Z,88.20
2018-03-26T19:43:28.928Z,90.10
2018-03-26T19:45:56.382Z,90.20
2018-03-26T19:48:23.840Z,86.80
2018-03-26T19:50:51.303Z,85.20
2018-03-26T19:53:18.775Z,87.90
2018-03-26T19:55:46.227Z,89.30
2018-03-26T19:58:13.743Z,87.40
2018-03-26T20:00:41.136Z,88.00
2018-03-26T20:03:08.592Z,87.50
2018-03-26T20:05:36.035Z,90.70
2018-03-26T20:08:03.496Z,91.20
2018-03-26T20:10:30.957Z,90.40
2018-03-26T20:12:58.410Z,88.40
2018-03-26T20:15:25.869Z,88.40
2018-03-26T20:17:53.401Z,89.60
2018-03-26T20:20:20.791Z,89.10
2018-03-26T20:22:48.282Z,90.60
2018-03-26T20:25:15.728Z,91.10
2018-03-26T20:27:43.175Z,91.10
2018-03-26T20:30:10.643Z,90.20
2018-03-26T20:32:38.100Z,90.20
2018-03-26T20:35:05.569Z,91.50
2018-03-26T20:37:33.021Z,93.20
2018-03-26T20:40:00.488Z,95.20
2018-03-26T20:42:28.732Z,95.60
2018-03-26T20:44:56.171Z,95.60
2018-03-26T20:47:23.627Z,94.10
2018-03-26T20:49:51.084Z,94.20
2018-03-26T20:52:18.539Z,93.40
2018-03-26T20:54:46.000Z,91.20
2018-03-26T20:57:13.459Z,90.10
2018-03-26T20:59:40.915Z,93.20
2018-03-26T21:02:08.370Z,92.60
2018-03-26T21:04:35.833Z,94.80
2018-03-26T21:07:03.290Z,93.60
2018-03-26T21:09:30.757Z,95.50
2018-03-26T21:11:58.200Z,94.50
2018-03-26T21:14:25.657Z,92.10
2018-03-26T21:16:53.115Z,92.00
2018-03-26T21:19:20.571Z,94.20
2018-03-26T21:21:48.028Z,93.60
2018-03-26T21:24:15.488Z,94.00
2018-03-26T21:26:42.949Z,93.80
2018-03-26T21:29:10.404Z,96.10
2018-03-26T21:31:37.862Z,97.50
2018-03-26T21:34:05.316Z,98.70
2018-03-26T21:36:32.783Z,98.00
2018-03-26T21:41:34.269Z,94.10
2018-03-26T21:44:01.717Z,93.20
2018-03-26T21:46:29.167Z,92.00
2018-03-26T21:48:56.620Z,91.80
2018-03-26T21:51:24.104Z,93.50
2018-03-26T21:53:51.563Z,92.60
2018-03-26T21:56:19.040Z,92.40
2018-03-26T21:58:46.492Z,92.10
2018-03-26T22:01:14.736Z,91.70
2018-03-26T22:03:42.179Z,91.60
2018-03-26T22:06:09.632Z,91.50
2018-03-26T22:08:37.087Z,90.90
2018-03-26T22:11:04.516Z,92.20
2018-03-26T22:13:31.967Z,95.00
2018-03-26T22:15:59.413Z,95.90
2018-03-26T22:18:27.643Z,98.60
2018-03-26T22:20:55.099Z,98.60
2018-03-26T22:23:22.552Z,99.50
2018-03-26T22:25:50.008Z,95.80
2018-03-26T22:28:17.473Z,93.30
2018-03-26T22:30:44.921Z,92.40
2018-03-26T22:33:12.380Z,92.30
2018-03-26T22:35:39.835Z,91.80
2018-03-26T22:38:07.295Z,91.10
2018-03-26T22:40:34.750Z,91.70
2018-03-26T22:43:02.222Z,91.80
2018-03-26T22:45:29.664Z,93.80
2018-03-26T22:47:57.108Z,97.60
2018-03-26T22:50:24.573Z,97.50
2018-03-26T22:52:52.007Z,94.90
2018-03-26T22:55:19.459Z,97.20
2018-03-26T22:57:46.916Z,96.60
2018-03-26T23:00:14.409Z,96.20
2018-03-26T23:02:41.864Z,94.30
2018-03-26T23:05:09.320Z,92.30
2018-03-26T23:07:36.777Z,91.80
2018-03-26T23:10:04.235Z,94.10
2018-03-26T23:12:31.672Z,96.50
2018-03-26T23:14:59.147Z,97.20
2018-03-26T23:17:26.584Z,99.10
2018-03-26T23:19:54.065Z,99.90
2018-03-26T23:22:33.458Z,99.90
2018-03-26T23:25:00.912Z,99.90
2018-03-26T23:27:29.136Z,99.90
2018-03-26T23:29:56.595Z,99.90
2018-03-26T23:32:24.049Z,99.90
2018-03-26T23:34:51.504Z,99.90
2018-03-26T23:37:18.947Z,99.90
2018-03-26T23:39:46.420Z,99.90
2018-03-26T23:42:13.883Z,99.00
2018-03-26T23:44:41.335Z,98.20
2018-03-26T23:47:08.792Z,97.90
2018-03-26T23:49:36.309Z,96.80
2018-03-26T23:52:03.706Z,97.30
2018-03-26T23:54:31.214Z,99.20
2018-03-26T23:56:58.617Z,99.90
2018-03-26T23:59:26.079Z,97.20
